Buchanan, NY (10511)

10:41 PM EDT on September 20, 2014 (GMT -0400)
Blue Mountain Reservation | Change Station
CLOSE
Current Station
Personal Weather Station
Location: Cortlandt Manor, NY
Elevation: 256 ft
Nearby Weather Stations

Elev 256 ft 41.26 °N, 73.91 °W | Updated 5 seconds ago

Partly Cloudy
Partly Cloudy
66.0 °F
Feels Like 66.0 °F
N
0.0
Wind Variable Wind from SSW
Gusts 0.0 mph

Today
High -- | Low -- °F
--% Chance of Precip.
Yesterday
High -- | Low -- °F
Precip. -- in
6:41 AM 6:56 PM
Waning Crescent, 9% visible
Pressure 30.10 in
Visibility 7.0 miles
Clouds Mostly Cloudy 1700 ft
Dew Point 63 °F
Humidity 90%
Rainfall 0.00 in
Snow Depth Not available.
UV 0 out of 12
Pollen 2.60 out of 12
Ozone Good
PM2.5 Good
Flu Activity Not available.
METAR KHPN 210156Z 00000KT 7SM BKN017 18/16 A3011 RMK AO2 SLP192 T01780161

More Conditions Fewer Conditions

Pressure 30.10 in
Visibility 7.0 miles
Clouds Mostly Cloudy 1700 ft
Dew Point 63 °F
Humidity 90%
Rainfall 0.00 in
Snow Depth Not available.
UV 0 out of 12
Pollen 2.60 out of 12
Ozone Good
PM2.5 Good
Flu Activity Not available.
METAR KHPN 210156Z 00000KT 7SM BKN017 18/16 A3011 RMK AO2 SLP192 T01780161

More Conditions Fewer Conditions

10-Day Weather Forecast

Almanac

Astronomy

Sep. 20, 2014 Rise Set
Actual Time 6:41 AM EDT 6:56 PM EDT
Civil Twilight 6:13 AM EDT 7:23 PM EDT
Nautical Twilight 5:41 AM EDT 7:56 PM EDT
Astronomical Twilight 5:08 AM EDT 8:29 PM EDT
Moon 3:16 AM EDT (9/20) 4:59 PM EDT (9/20)
Length of Visible Light 13h 10m
Length of Day
12h 15m
Tomorrow will be 2m 44s shorter.
Waning Crescent, 9% of the Moon is Illuminated
Today
Waning Crescent
Sep 24
New
Oct 1
First Quarter
Oct 8
Full
Oct 15
Last Quarter

Today's Extremes

State Highs State Lows

Community

WunderPhotos

Upload Photos

1,755,066 photos uploaded!

WunderBlogs® & News

Nearby

Air Quality

  Air Quality AQ Index Pollutant
Yesterday Good
PM2.5
Yesterday Good
OZONE
Current Good
PM2.5
Current Good
OZONE
Saturday Good
OZONE
Saturday Good
PM2.5
Sunday Good
OZONE
Sunday Good
PM2.5
Monday Good
OZONE
Monday Good
PM2.5

Snow Depth

Station Depth Elevation
No new snow has been reported.

Earthquake Activity

City Distance Mag. Time & Date
No recent earthquake activity has been reported nearby.
Minimum magnitude displayed is 2.5.

Coastal Water Temperatures

Place Temperature
Kings Point, NY 68.0 °F
Bridgeport, CT 69.1 °F

Nearby Weather Stations